Lucas Ribeiro

Olheiro - Santos
25 Nov 2027
Quinta-feira
Processo

Personalidade

Adaptabilidade (9) Ambição (14) Controvérsia (7) Lealdade (18) Pressão (18) Profissionalismo (11) Espírito Esportivo (13) Temperamento (1)

Perfil

Estilo de Treinamento Democrático
Licença Continental A
Determinação 10
Gestão de Pessoas 9
Motivação 11
Disciplina 14
Satisfação no Trabalho
100%
Fadiga
0%
Função Olheiro
Salário 68.8K p/s
Contrato 14.03.2030

Desempenho

Comportamento Bom
Eficácia do Treinamento
58%
Desenvolvimento do Jogador
60%
Prevenção de Lesões
35%
Implementação Tática
40%

Eventos Recentes

Participou de uma reunião de recrutamento 7d atrás
Participou de uma reunião de recrutamento 7d atrás
Participou de uma reunião de recrutamento 14d atrás
Participou de uma reunião de recrutamento 14d atrás
Participou de uma reunião de recrutamento 21d atrás
Participou de uma reunião de recrutamento 21d atrás
Participou de uma reunião de recrutamento 28d atrás
Participou de uma reunião de recrutamento 28d atrás

Monitorando agora

100
Jogador Clube Status Habilidade Confiança Observado Última observação Último voto
Mats Wieffer Brighton Ativo 150 / 152 40% 3 30.05.2027 -
Dara O'Shea Ipswich Town Ativo 135 / 138 40% 1 30.05.2027 -
Kristoffer Lund Birmingham Ativo 124 / 133 40% 1 30.05.2027 -
Nico González Newcastle United Ativo 163 / 160 40% 2 29.05.2027 -
Milan van Ewijk Mansfield Town Ativo 127 / 135 40% 2 29.05.2027 -
Boubacar Kamara Aston Villa Ativo 159 / 160 40% 3 29.05.2027 -
Saša Lukić Ipswich Town Ativo 136 / 137 40% 3 28.05.2027 -
Sven Botman Newcastle United Ativo 162 / 158 40% 3 28.05.2027 -
Yehor Yarmoliuk Brentford Ativo 155 / 153 40% 2 28.05.2027 -
Marezi Portsmouth Ativo 121 / 126 40% 5 27.05.2027 -
Dom Ballard Leyton Orient Ativo 128 / 127 40% 3 27.05.2027 -
Mateo Pellegrino Fiorentina Ativo 132 / 144 40% 1 27.05.2027 -
Tyler Adams Bournemouth Ativo 160 / 147 40% 2 26.05.2027 -
Ousmane Diomande Nottingham Forest Ativo 158 / 153 40% 1 26.05.2027 -
Óscar Mingueza Crystal Palace Ativo 144 / 147 40% 1 26.05.2027 -
Callum Doyle Wrexham Ativo 133 / 137 40% 3 24.05.2027 -
Aune Heggebø West Bromwich Albion Ativo 126 / 129 40% 2 24.05.2027 -
Kenan Yıldız Juventus Ativo 166 / 162 40% 1 24.05.2027 Mais informações
Mees Rijks Bristol Rovers Ativo 116 / 107 40% 1 24.05.2027 -
Richard Koné Queens Park Rangers Ativo 118 / 124 40% 2 22.05.2027 -
Georginio Rutter Brighton Ativo 141 / 146 40% 3 22.05.2027 -
Dango Ouattara Brentford Ativo 149 / 147 40% 1 22.05.2027 -
Yousef Salech Cardiff City Ativo 121 / 123 40% 3 20.05.2027 -
Morgan Whittaker Middlesbrough Ativo 141 / 134 40% 3 20.05.2027 -
Kyle Walker-Peters West Ham United Ativo 140 / 136 40% 2 19.05.2027 -
Curtis Jones Inter Ativo 161 / 155 40% 2 19.05.2027 -
Imrân Louza Watford Ativo 132 / 133 40% 1 19.05.2027 -
Shea Charles Southampton Ativo 140 / 135 40% 3 18.05.2027 -
Alessandro Buongiorno Sassuolo Ativo 163 / 155 40% 2 18.05.2027 -
Tyreece Campbell Charlton Athletic Ativo 119 / 123 40% 1 16.05.2027 -
Thiago Brentford Ativo 149 / 147 40% 1 16.05.2027 -
Tom Cannon Sheffield United Ativo 126 / 132 40% 1 16.05.2027 -
Adrien Truffert Bournemouth Ativo 158 / 150 40% 3 13.05.2027 -
Pedro Porro Tottenham Ativo 152 / 143 40% 1 13.05.2027 -
Assane Diao Lazio Ativo 144 / 151 40% 1 12.05.2027 -
Nicolas Jackson Aston Villa Ativo 149 / 143 40% 1 12.05.2027 -
Quinten Timber Crystal Palace Ativo 158 / 146 40% 2 11.05.2027 -
Benjamin White Arsenal Ativo 165 / 156 40% 2 10.05.2027 -
Adam Wharton Crystal Palace Ativo 156 / 159 40% 3 09.05.2027 -
Bojan Radulović Huddersfield Town Ativo 108 / 110 40% 1 09.05.2027 -
Nathan Collins Brentford Ativo 144 / 150 40% 1 09.05.2027 -
Japhet Tanganga Sheffield United Ativo 139 / 129 40% 1 06.05.2027 -
Anton Stach Leeds United Ativo 147 / 144 40% 1 06.05.2027 -
Igor Burnley Ativo 138 / 137 40% 2 05.05.2027 -
Dávid Strelec Middlesbrough Ativo 142 / 132 40% 1 02.05.2027 -
Andrea Pinamonti Lazio Ativo 148 / 141 40% 1 02.05.2027 -
Luis Vázquez Birmingham Ativo 132 / 130 40% 2 30.04.2027 -
Gonçalo Ramos AC Milan Ativo 152 / 154 40% 3 30.04.2027 -
Chris Mepham West Bromwich Albion Ativo 134 / 132 40% 1 28.04.2027 -
Welington Southampton Ativo 130 / 129 40% 4 24.04.2027 -
Rodrigo Pinheiro Famalicao Ativo 128 / 132 40% 1 24.04.2027 -
Jan Paul van Hecke Tottenham Ativo 152 / 159 40% 1 21.04.2027 -
Iván Fresneda Sporting CP Ativo 148 / 146 40% 2 19.04.2027 -
Hwang In-Beom Porto Ativo 138 / 144 40% 1 19.04.2027 -
Ethan Galbraith Swansea City Ativo 131 / 130 40% 2 17.04.2027 -
Figueiredo Alverca Ativo 134 / 129 40% 4 15.04.2027 -
Vinícius Lopes Santa Clara Ativo 123 / 116 40% 4 15.04.2027 -
Henrique Araújo Casa Pia Ativo 117 / 122 40% 2 13.04.2027 -
Lucas Duarte Felgueiras Ativo 102 / 100 40% 1 13.04.2027 -
Noah Sadiki Sunderland Ativo 137 / 152 40% 1 12.04.2027 -
João Simões Sporting CP Ativo 125 / 136 40% 1 12.04.2027 -
Francisco Moura Lusitânia Lourosa Ativo 133 / 138 40% 2 11.04.2027 -
Harry Clarke Preston Ativo 127 / 130 40% 2 11.04.2027 -
Tomás Araújo Benfica Ativo 148 / 150 40% 1 08.04.2027 -
Alberto Costa Porto Ativo 139 / 142 40% 2 07.04.2027 -
Dinis Pinto Moreirense Ativo 122 / 129 40% 1 06.04.2027 -
Pablo Rosario Porto Ativo 146 / 139 40% 1 06.04.2027 -
Anel Ahmedhodžić Burnley Ativo 128 / 136 40% 2 03.04.2027 -
Tyrell Malacia Monaco Ativo 142 / 136 40% 1 02.04.2027 -
Luís Esteves Atlas Ativo 126 / 131 40% 1 01.04.2027 -
Pau Víctor AVS Ativo 146 / 141 40% 3 29.03.2027 -
Kwame Opoku Asante Kotoko Ativo 101 / 96 40% 2 29.03.2027 -
Dylan Nandín Arouca Ativo 119 / 116 40% 2 28.03.2027 -
Bright Arrey-Mbi Braga Ativo 128 / 133 40% 2 26.03.2027 -
Zeno Debast Sporting CP Ativo 135 / 146 40% 1 26.03.2027 -
Jordan Holsgrove Estoril Praia Ativo 138 / 130 40% 1 26.03.2027 -
Gustavo Silva Vitoria Guimaraes Ativo 128 / 120 40% 3 22.03.2027 -
Gabriel Veron Porto Ativo 133 / 131 40% 3 21.03.2027 -
Gerardo Arteaga Monterrey Ativo 131 / 134 40% 1 19.03.2027 -
Razvan Balasa Crvena Zvezda Ativo 141 / 149 40% 2 18.03.2027 -
Tyrese Campbell Sheffield United Ativo 131 / 121 40% 1 18.03.2027 -
Fally Mayulu Arouca Ativo 108 / 112 40% 1 09.03.2027 -
Pablo Ruan Nacional Ativo 113 / 109 40% 1 05.03.2027 -
Miguel Falé Pacos de Ferreira Ativo 103 / 103 40% 1 28.02.2027 -
Ozziel Herrera Tigres Ativo 128 / 126 40% 1 12.02.2027 -
Jalen Blesa Rio Ave Ativo 114 / 111 40% 1 21.11.2026 -
Facundo Colidio Vasco da Gama Ativo 125 / 122 40% 1 21.11.2026 -
Dawda Camara Alverca Ativo 114 / 115 40% 1 13.11.2026 -
Ramiro Ruiz Rodríguez Atlético Tucumán Ativo 122 / 117 40% 1 30.10.2026 -
André Lacximicant Estoril Praia Ativo 112 / 119 40% 2 14.10.2026 -
Alexis Cuello San Lorenzo Ativo 127 / 127 40% 2 14.10.2026 -
Rodrigo Castillo Fluminense Ativo 134 / 132 40% 1 14.10.2026 -
Yanis Begraoui Estoril Praia Ativo 135 / 133 40% 1 17.09.2026 -
Vitinho Internacional Ativo 127 / 124 40% 1 08.09.2026 -
Martín Tejón Maritimo Ativo 120 / 114 40% 1 08.09.2026 -
Leandro Barreiro Benfica Ativo 131 / 140 40% 1 03.08.2026 -
Heorhii Sudakov Benfica Ativo 138 / 149 40% 1 03.08.2026 -
Tony Strata Vitoria Guimaraes Ativo 118 / 133 40% 1 03.08.2026 -
Diogo Dalot Manchester United Ativo 149 / 136 40% 1 01.08.2026 -
Dodi Lukébakio Benfica Ativo 140 / 140 40% 1 01.08.2026 -